createdAt,value
2017-07-08T00:00:05.558Z,0
2017-07-08T00:01:05.605Z,0
2017-07-08T00:02:05.649Z,0
2017-07-08T00:03:05.683Z,0
2017-07-08T00:04:05.724Z,0
2017-07-08T00:05:05.771Z,0
2017-07-08T00:06:05.814Z,0
2017-07-08T00:07:05.862Z,0
2017-07-08T00:08:05.943Z,0
2017-07-08T00:09:05.960Z,0
2017-07-08T00:10:05.974Z,0
2017-07-08T00:11:06.018Z,0
2017-07-08T00:12:06.053Z,0
2017-07-08T00:13:06.102Z,0
2017-07-08T00:14:06.139Z,0
2017-07-08T00:15:06.183Z,0
2017-07-08T00:16:06.219Z,0
2017-07-08T00:17:06.264Z,0
2017-07-08T00:18:06.299Z,0
2017-07-08T00:19:06.341Z,0
2017-07-08T00:20:06.703Z,0
2017-07-08T00:21:06.432Z,0
2017-07-08T00:22:06.472Z,0
2017-07-08T00:23:06.503Z,0
2017-07-08T00:24:06.590Z,0
2017-07-08T00:25:06.905Z,0
2017-07-08T00:26:06.631Z,0
2017-07-08T00:27:06.722Z,0
2017-07-08T00:28:06.716Z,0
2017-07-08T00:29:06.757Z,0
2017-07-08T00:30:06.791Z,0
2017-07-08T00:31:06.839Z,0
2017-07-08T00:32:06.875Z,0
2017-07-08T00:33:06.922Z,0
2017-07-08T00:34:06.962Z,0
2017-07-08T00:35:07.004Z,0
2017-07-08T00:36:07.065Z,0
2017-07-08T00:37:07.080Z,0
2017-07-08T00:38:07.125Z,0
2017-07-08T00:39:07.170Z,0
2017-07-08T00:40:07.202Z,0
2017-07-08T00:41:07.473Z,0
2017-07-08T00:42:07.286Z,0
2017-07-08T00:43:07.332Z,0
2017-07-08T00:44:07.373Z,0
2017-07-08T00:45:07.414Z,0
2017-07-08T00:46:07.457Z,0
2017-07-08T00:47:07.489Z,0
2017-07-08T00:48:07.538Z,0
2017-07-08T00:49:07.578Z,0
2017-07-08T00:50:07.619Z,0
2017-07-08T00:51:07.658Z,0
2017-07-08T00:52:07.699Z,0
2017-07-08T00:53:08.278Z,0
2017-07-08T00:54:07.783Z,0
2017-07-08T00:55:07.828Z,0
2017-07-08T00:56:07.867Z,0
2017-07-08T00:57:07.904Z,0
2017-07-08T00:58:07.939Z,0
2017-07-08T00:59:07.981Z,0
2017-07-08T01:00:08.031Z,0
2017-07-08T01:01:08.061Z,0
2017-07-08T01:02:08.111Z,0
2017-07-08T01:03:08.150Z,0
2017-07-08T01:04:08.519Z,0
2017-07-08T01:05:08.230Z,0
2017-07-08T01:06:08.270Z,0
2017-07-08T01:07:08.312Z,0
2017-07-08T01:08:08.351Z,0
2017-07-08T01:09:08.399Z,0
2017-07-08T01:10:08.438Z,0
2017-07-08T01:11:08.799Z,0
2017-07-08T01:12:08.513Z,0
2017-07-08T01:13:08.608Z,0
2017-07-08T01:14:08.595Z,0
2017-07-08T01:15:08.642Z,0
2017-07-08T01:16:08.683Z,0
2017-07-08T01:17:08.721Z,0
2017-07-08T01:18:08.767Z,0
2017-07-08T01:19:08.803Z,0
2017-07-08T01:20:08.847Z,0
2017-07-08T01:21:08.896Z,0
2017-07-08T01:22:08.926Z,0
2017-07-08T01:23:08.970Z,0
2017-07-08T01:24:09.003Z,0
2017-07-08T01:25:09.048Z,0
2017-07-08T01:26:09.091Z,0
2017-07-08T01:27:09.126Z,0
2017-07-08T01:28:09.176Z,0
2017-07-08T01:29:09.215Z,0
2017-07-08T01:30:09.271Z,0
2017-07-08T01:31:09.295Z,0
2017-07-08T01:32:09.335Z,0
2017-07-08T01:33:09.377Z,0
2017-07-08T01:34:09.420Z,0
2017-07-08T01:35:09.459Z,0
2017-07-08T01:36:09.493Z,0
2017-07-08T01:37:09.539Z,0
2017-07-08T01:38:09.585Z,0
2017-07-08T01:39:09.622Z,0
2017-07-08T01:40:09.664Z,0
2017-07-08T01:41:09.698Z,0
2017-07-08T01:42:09.744Z,0
2017-07-08T01:43:09.775Z,0
2017-07-08T01:44:09.823Z,0
2017-07-08T01:45:09.862Z,0
2017-07-08T01:46:09.926Z,0
2017-07-08T01:47:09.944Z,0
2017-07-08T01:48:09.987Z,0
2017-07-08T01:49:10.033Z,0
2017-07-08T01:50:10.073Z,0
2017-07-08T01:51:10.109Z,0
2017-07-08T01:52:10.473Z,0
2017-07-08T01:53:10.194Z,0
2017-07-08T01:54:10.230Z,0
2017-07-08T01:55:10.271Z,0
2017-07-08T01:56:10.309Z,0
2017-07-08T01:57:10.365Z,0
2017-07-08T01:58:10.388Z,0
2017-07-08T01:59:10.439Z,0
2017-07-08T02:00:10.471Z,0
2017-07-08T02:01:10.524Z,0
2017-07-08T02:02:10.553Z,0
2017-07-08T02:03:10.600Z,0
2017-07-08T02:04:10.635Z,0
2017-07-08T02:05:10.681Z,0
2017-07-08T02:06:11.361Z,0
2017-07-08T02:07:10.762Z,0
2017-07-08T02:08:10.800Z,0
2017-07-08T02:09:10.843Z,0
2017-07-08T02:10:10.887Z,0
2017-07-08T02:11:10.939Z,0
2017-07-08T02:12:10.986Z,0
2017-07-08T02:13:11.000Z,0
2017-07-08T02:14:11.047Z,0
2017-07-08T02:15:11.098Z,0
2017-07-08T02:16:11.123Z,0
2017-07-08T02:17:11.190Z,0
2017-07-08T02:18:11.201Z,0
2017-07-08T02:19:11.261Z,0
2017-07-08T02:20:11.282Z,0
2017-07-08T02:21:11.338Z,0
2017-07-08T02:22:11.373Z,0
2017-07-08T02:23:11.411Z,0
2017-07-08T02:24:11.445Z,0
2017-07-08T02:25:11.494Z,0
2017-07-08T02:26:11.535Z,0
2017-07-08T02:27:11.575Z,0
2017-07-08T02:28:11.616Z,0
2017-07-08T02:29:11.653Z,0
2017-07-08T02:30:11.689Z,0
2017-07-08T02:31:11.737Z,0
2017-07-08T02:32:11.773Z,0
2017-07-08T02:33:11.812Z,0
2017-07-08T02:34:11.851Z,0
2017-07-08T02:35:11.894Z,0
2017-07-08T02:36:11.933Z,0
2017-07-08T02:37:11.981Z,0
2017-07-08T02:38:12.022Z,0
2017-07-08T02:39:12.053Z,0
2017-07-08T02:40:12.116Z,0
2017-07-08T02:41:12.137Z,0
2017-07-08T02:42:12.186Z,0
2017-07-08T02:43:12.212Z,0
2017-07-08T02:44:12.261Z,0
2017-07-08T02:45:12.307Z,0
2017-07-08T02:46:12.343Z,0
2017-07-08T02:47:12.387Z,0
2017-07-08T02:48:12.425Z,0
2017-07-08T02:49:12.462Z,0
2017-07-08T02:50:12.501Z,0
2017-07-08T02:51:12.565Z,0
2017-07-08T02:52:12.899Z,0
2017-07-08T02:53:12.628Z,0
2017-07-08T02:54:12.669Z,0
2017-07-08T02:55:12.702Z,0
2017-07-08T02:56:12.749Z,0
2017-07-08T02:57:12.789Z,0
2017-07-08T02:58:12.830Z,0
2017-07-08T02:59:12.868Z,0
2017-07-08T03:00:12.910Z,5
2017-07-08T03:01:13.261Z,5
2017-07-08T03:02:12.991Z,5
2017-07-08T03:03:13.024Z,5
2017-07-08T03:04:13.065Z,5
2017-07-08T03:05:13.108Z,5
2017-07-08T03:06:13.151Z,5
2017-07-08T03:07:13.190Z,5
2017-07-08T03:08:13.227Z,5
2017-07-08T03:09:13.279Z,10
2017-07-08T03:10:13.319Z,10
2017-07-08T03:11:13.360Z,10
2017-07-08T03:12:13.389Z,10
2017-07-08T03:13:13.431Z,10
2017-07-08T03:14:13.469Z,10
2017-07-08T03:15:13.574Z,10
2017-07-08T03:16:13.558Z,10
2017-07-08T03:17:13.590Z,15
2017-07-08T03:18:13.643Z,15
2017-07-08T03:19:13.677Z,15
2017-07-08T03:20:13.711Z,15
2017-07-08T03:21:13.759Z,15
2017-07-08T03:22:13.793Z,20
2017-07-08T03:23:13.837Z,20
2017-07-08T03:24:13.877Z,20
2017-07-08T03:25:13.914Z,25
2017-07-08T03:26:13.974Z,25
2017-07-08T03:27:13.991Z,25
2017-07-08T03:28:14.040Z,25
2017-07-08T03:29:14.074Z,30
2017-07-08T03:30:14.123Z,30
2017-07-08T03:31:14.154Z,30
2017-07-08T03:32:14.201Z,35
2017-07-08T03:33:14.235Z,30
2017-07-08T03:34:14.280Z,35
2017-07-08T03:35:14.323Z,35
2017-07-08T03:36:14.360Z,40
2017-07-08T03:37:14.719Z,40
2017-07-08T03:38:14.445Z,35
2017-07-08T03:39:14.477Z,35
2017-07-08T03:40:14.527Z,35
2017-07-08T03:41:14.560Z,35
2017-07-08T03:42:14.605Z,40
2017-07-08T03:43:14.647Z,40
2017-07-08T03:44:14.685Z,45
2017-07-08T03:45:14.734Z,45
2017-07-08T03:46:14.760Z,45
2017-07-08T03:47:14.809Z,45
2017-07-08T03:48:15.167Z,45
2017-07-08T03:49:14.889Z,40
2017-07-08T03:50:14.933Z,45
2017-07-08T03:51:14.971Z,50
2017-07-08T03:52:15.003Z,55
2017-07-08T03:53:15.052Z,60
2017-07-08T03:54:15.094Z,55
2017-07-08T03:55:15.132Z,60
2017-07-08T03:56:15.177Z,70
2017-07-08T03:57:15.212Z,75
2017-07-08T03:58:15.250Z,80
2017-07-08T03:59:15.299Z,80
2017-07-08T04:00:15.663Z,95
2017-07-08T04:01:15.381Z,100
2017-07-08T04:02:15.416Z,105
2017-07-08T04:03:15.678Z,110
2017-07-08T04:04:15.500Z,115
2017-07-08T04:05:15.542Z,115
2017-07-08T04:06:15.580Z,125
2017-07-08T04:07:15.624Z,115
2017-07-08T04:08:15.660Z,125
2017-07-08T04:09:15.708Z,125
2017-07-08T04:10:15.753Z,125
2017-07-08T04:11:15.781Z,125
2017-07-08T04:12:15.829Z,130
2017-07-08T04:13:15.865Z,130
2017-07-08T04:14:15.908Z,135
2017-07-08T04:15:15.958Z,135
2017-07-08T04:16:16.042Z,135
2017-07-08T04:17:16.041Z,130
2017-07-08T04:18:16.077Z,140
2017-07-08T04:19:16.128Z,145
2017-07-08T04:20:16.166Z,155
2017-07-08T04:21:16.203Z,165
2017-07-08T04:22:16.247Z,175
2017-07-08T04:23:16.287Z,190
2017-07-08T04:24:16.338Z,200
2017-07-08T04:25:16.373Z,215
2017-07-08T04:26:16.418Z,215
2017-07-08T04:27:16.474Z,205
2017-07-08T04:28:16.502Z,195
2017-07-08T04:29:16.548Z,195
2017-07-08T04:30:16.588Z,195
2017-07-08T04:31:16.639Z,195
2017-07-08T04:32:16.674Z,180
2017-07-08T04:33:16.720Z,215
2017-07-08T04:34:16.761Z,225
2017-07-08T04:35:16.812Z,230
2017-07-08T04:36:16.851Z,260
2017-07-08T04:37:16.887Z,255
2017-07-08T04:38:16.938Z,230
2017-07-08T04:39:16.984Z,170
2017-07-08T04:40:17.015Z,155
2017-07-08T04:41:17.067Z,155
2017-07-08T04:42:17.101Z,170
2017-07-08T04:43:17.163Z,185
2017-07-08T04:44:17.197Z,190
2017-07-08T04:45:17.240Z,195
2017-07-08T04:46:17.287Z,220
2017-07-08T04:47:17.323Z,250
2017-07-08T04:48:17.376Z,235
2017-07-08T04:49:17.419Z,225
2017-07-08T04:50:17.459Z,245
2017-07-08T04:51:17.506Z,255
2017-07-08T04:52:17.541Z,265
2017-07-08T04:53:17.589Z,255
2017-07-08T04:54:17.635Z,255
2017-07-08T04:55:17.668Z,245
2017-07-08T04:56:17.720Z,245
2017-07-08T04:57:17.765Z,245
2017-07-08T04:58:17.812Z,285
2017-07-08T04:59:17.851Z,305
2017-07-08T05:00:17.885Z,300
2017-07-08T05:01:17.936Z,290
2017-07-08T05:02:17.971Z,280
2017-07-08T05:03:18.023Z,290
2017-07-08T05:04:18.066Z,305
2017-07-08T05:05:18.110Z,325
2017-07-08T05:06:18.148Z,340
2017-07-08T05:07:18.189Z,340
2017-07-08T05:08:18.242Z,345
2017-07-08T05:09:18.282Z,360
2017-07-08T05:10:18.339Z,355
2017-07-08T05:11:18.371Z,330
2017-07-08T05:12:18.410Z,315
2017-07-08T05:13:18.461Z,315
2017-07-08T05:14:18.504Z,325
2017-07-08T05:15:18.540Z,340
2017-07-08T05:16:18.590Z,325
2017-07-08T05:17:18.634Z,335
2017-07-08T05:18:18.683Z,385
2017-07-08T05:19:18.721Z,425
2017-07-08T05:20:18.761Z,430
2017-07-08T05:21:18.812Z,415
2017-07-08T05:22:18.854Z,415
2017-07-08T05:23:18.897Z,400
2017-07-08T05:24:18.946Z,375
2017-07-08T05:25:18.985Z,325
2017-07-08T05:26:19.029Z,325
2017-07-08T05:27:19.070Z,335
2017-07-08T05:28:19.111Z,335
2017-07-08T05:29:19.154Z,305
2017-07-08T05:30:19.207Z,350
2017-07-08T05:31:19.245Z,380
2017-07-08T05:32:19.294Z,395
2017-07-08T05:33:19.336Z,395
2017-07-08T05:34:19.380Z,405
2017-07-08T05:35:19.434Z,435
2017-07-08T05:36:19.472Z,415
2017-07-08T05:37:19.515Z,365
2017-07-08T05:38:19.557Z,385
2017-07-08T05:39:19.594Z,405
2017-07-08T05:40:19.644Z,420
2017-07-08T05:41:19.687Z,400
2017-07-08T05:42:19.726Z,400
2017-07-08T05:43:19.770Z,375
2017-07-08T05:44:19.819Z,310
2017-07-08T05:45:19.864Z,245
2017-07-08T05:46:19.909Z,215
2017-07-08T05:47:19.954Z,230
2017-07-08T05:48:19.990Z,300
2017-07-08T05:49:20.351Z,715
2017-07-08T05:50:20.084Z,810
2017-07-08T05:51:20.129Z,780
2017-07-08T05:52:20.183Z,850
2017-07-08T05:53:20.209Z,880
2017-07-08T05:54:20.260Z,890
2017-07-08T05:55:20.300Z,895
2017-07-08T05:56:20.350Z,890
2017-07-08T05:57:20.396Z,910
2017-07-08T05:58:20.443Z,940
2017-07-08T05:59:20.489Z,960
2017-07-08T06:00:20.529Z,965
2017-07-08T06:01:20.594Z,975
2017-07-08T06:02:20.622Z,960
2017-07-08T06:03:20.669Z,955
2017-07-08T06:04:20.718Z,960
2017-07-08T06:05:20.828Z,925
2017-07-08T06:06:20.819Z,970
2017-07-08T06:07:20.871Z,965
2017-07-08T06:08:20.910Z,970
2017-07-08T06:09:20.965Z,990
2017-07-08T06:10:21.008Z,1000
2017-07-08T06:11:21.069Z,1000
2017-07-08T06:12:21.109Z,1010
2017-07-08T06:13:21.170Z,965
2017-07-08T06:14:21.216Z,985
2017-07-08T06:15:21.258Z,940
2017-07-08T06:16:21.314Z,980
2017-07-08T06:17:21.363Z,1025
2017-07-08T06:18:21.415Z,975
2017-07-08T06:19:21.465Z,1015
2017-07-08T06:20:21.516Z,1035
2017-07-08T06:21:21.562Z,740
2017-07-08T06:22:21.618Z,1075
2017-07-08T06:23:21.674Z,1110
2017-07-08T06:24:21.721Z,1095
2017-07-08T06:25:21.775Z,1190
2017-07-08T06:26:21.819Z,1220
2017-07-08T06:27:21.873Z,1115
2017-07-08T06:28:21.932Z,895
2017-07-08T06:29:22.287Z,1125
2017-07-08T06:30:22.031Z,675
2017-07-08T06:31:22.073Z,1165
2017-07-08T06:32:22.134Z,1275
2017-07-08T06:33:22.178Z,1295
2017-07-08T06:34:22.237Z,1345
2017-07-08T06:35:22.291Z,1360
2017-07-08T06:36:22.333Z,1365
2017-07-08T06:37:22.605Z,1375
2017-07-08T06:38:22.447Z,1360
2017-07-08T06:39:22.495Z,1330
2017-07-08T06:40:22.551Z,935
2017-07-08T06:41:22.596Z,1245
2017-07-08T06:42:22.657Z,1070
2017-07-08T06:43:22.713Z,535
2017-07-08T06:44:22.766Z,1285
2017-07-08T06:45:22.819Z,1225
2017-07-08T06:46:22.870Z,940
2017-07-08T06:47:22.924Z,995
2017-07-08T06:48:22.972Z,1075
2017-07-08T06:49:23.026Z,755
2017-07-08T06:50:23.075Z,1205
2017-07-08T06:51:23.133Z,1295
2017-07-08T06:52:23.194Z,1350
2017-07-08T06:53:23.238Z,1320
2017-07-08T06:54:23.295Z,1310
2017-07-08T06:55:23.675Z,640
2017-07-08T06:56:23.394Z,1530
2017-07-08T06:57:23.453Z,1515
2017-07-08T06:58:23.499Z,1275
2017-07-08T06:59:23.559Z,715
2017-07-08T07:00:23.618Z,1065
2017-07-08T07:01:23.664Z,1110
2017-07-08T07:02:24.043Z,630
2017-07-08T07:03:23.771Z,750
2017-07-08T07:04:23.818Z,1400
2017-07-08T07:05:23.890Z,600
2017-07-08T07:06:23.929Z,675
2017-07-08T07:07:23.971Z,1215
2017-07-08T07:08:24.028Z,1605
2017-07-08T07:09:24.077Z,585
2017-07-08T07:10:24.133Z,740
2017-07-08T07:11:24.187Z,940
2017-07-08T07:12:24.234Z,595
2017-07-08T07:13:24.292Z,495
2017-07-08T07:14:24.334Z,715
2017-07-08T07:15:24.393Z,795
2017-07-08T07:16:24.441Z,740
2017-07-08T07:17:24.494Z,465
2017-07-08T07:18:24.543Z,445
2017-07-08T07:19:24.593Z,450
2017-07-08T07:20:24.646Z,620
2017-07-08T07:21:24.695Z,995
2017-07-08T07:22:24.742Z,505
2017-07-08T07:23:24.798Z,415
2017-07-08T07:24:24.844Z,320
2017-07-08T07:25:24.892Z,245
2017-07-08T07:26:24.931Z,265
2017-07-08T07:27:24.988Z,315
2017-07-08T07:28:25.034Z,210
2017-07-08T07:29:25.086Z,260
2017-07-08T07:30:25.130Z,255
2017-07-08T07:31:25.178Z,290
2017-07-08T07:32:25.234Z,420
2017-07-08T07:33:25.269Z,480
2017-07-08T07:34:25.328Z,450
2017-07-08T07:35:25.373Z,470
2017-07-08T07:36:25.423Z,550
2017-07-08T07:37:25.467Z,480
2017-07-08T07:38:25.506Z,630
2017-07-08T07:39:25.561Z,1115
2017-07-08T07:40:25.605Z,455
2017-07-08T07:41:25.656Z,640
2017-07-08T07:42:25.695Z,585
2017-07-08T07:43:25.751Z,920
2017-07-08T07:44:25.789Z,640
2017-07-08T07:45:25.841Z,480
2017-07-08T07:46:25.887Z,455
2017-07-08T07:47:25.937Z,510
2017-07-08T07:48:25.978Z,510
2017-07-08T07:49:26.030Z,580
2017-07-08T07:50:26.072Z,615
2017-07-08T07:51:26.135Z,510
2017-07-08T07:52:26.172Z,615
2017-07-08T07:53:26.553Z,825
2017-07-08T07:54:26.266Z,1205
2017-07-08T07:55:26.309Z,1740
2017-07-08T07:56:26.359Z,860
2017-07-08T07:57:26.405Z,675
2017-07-08T07:58:26.448Z,680
2017-07-08T07:59:26.507Z,1855
2017-07-08T08:00:26.544Z,1815
2017-07-08T08:01:26.916Z,860
2017-07-08T08:02:26.641Z,585
2017-07-08T08:03:26.689Z,1280
2017-07-08T08:04:26.748Z,1950
2017-07-08T08:05:26.793Z,685
2017-07-08T08:06:26.847Z,440
2017-07-08T08:07:26.888Z,390
2017-07-08T08:08:26.950Z,475
2017-07-08T08:09:26.991Z,1625
2017-07-08T08:10:27.039Z,1360
2017-07-08T08:11:27.084Z,1500
2017-07-08T08:12:27.138Z,1875
2017-07-08T08:13:27.183Z,1910
2017-07-08T08:14:27.243Z,525
2017-07-08T08:15:27.596Z,425
2017-07-08T08:16:27.333Z,475
2017-07-08T08:17:27.388Z,870
2017-07-08T08:18:27.447Z,1575
2017-07-08T08:19:27.480Z,1465
2017-07-08T08:20:27.532Z,1420
2017-07-08T08:21:27.590Z,1295
2017-07-08T08:22:27.635Z,1230
2017-07-08T08:23:27.681Z,1150
2017-07-08T08:24:27.735Z,1075
2017-07-08T08:25:27.793Z,830
2017-07-08T08:26:27.839Z,955
2017-07-08T08:27:27.882Z,1015
2017-07-08T08:28:28.257Z,1175
2017-07-08T08:29:27.985Z,775
2017-07-08T08:30:28.039Z,1190
2017-07-08T08:31:28.088Z,960
2017-07-08T08:32:28.140Z,720
2017-07-08T08:33:28.187Z,1070
2017-07-08T08:34:28.232Z,1170
2017-07-08T08:35:28.290Z,1225
2017-07-08T08:36:28.339Z,1340
2017-07-08T08:37:28.384Z,1125
2017-07-08T08:38:28.438Z,725
2017-07-08T08:39:28.495Z,590
2017-07-08T08:40:28.539Z,670
2017-07-08T08:41:28.588Z,1050
2017-07-08T08:42:28.634Z,985
2017-07-08T08:43:28.690Z,880
2017-07-08T08:44:28.740Z,670
2017-07-08T08:45:28.783Z,810
2017-07-08T08:46:28.841Z,1365
2017-07-08T08:47:28.884Z,1595
2017-07-08T08:48:28.936Z,1520
2017-07-08T08:49:28.991Z,1255
2017-07-08T08:50:29.039Z,1835
2017-07-08T08:51:29.092Z,1685
2017-07-08T08:52:29.215Z,1320
2017-07-08T08:53:29.197Z,955
2017-07-08T08:54:29.246Z,850
2017-07-08T08:55:29.288Z,865
2017-07-08T08:56:29.347Z,710
2017-07-08T08:57:29.396Z,660
2017-07-08T08:58:29.448Z,650
2017-07-08T08:59:29.491Z,650
2017-07-08T09:00:29.547Z,675
2017-07-08T09:01:29.600Z,690
2017-07-08T09:02:29.649Z,625
2017-07-08T09:03:29.692Z,630
2017-07-08T09:04:29.747Z,590
2017-07-08T09:05:29.799Z,575
2017-07-08T09:06:29.850Z,565
2017-07-08T09:07:30.209Z,550
2017-07-08T09:08:29.946Z,530
2017-07-08T09:09:29.987Z,530
2017-07-08T09:10:30.040Z,495
2017-07-08T09:11:30.093Z,400
2017-07-08T09:12:30.139Z,335
2017-07-08T09:13:30.184Z,350
2017-07-08T09:14:30.237Z,405
2017-07-08T09:15:30.281Z,450
2017-07-08T09:16:30.333Z,480
2017-07-08T09:17:30.384Z,540
2017-07-08T09:18:30.424Z,605
2017-07-08T09:19:30.477Z,745
2017-07-08T09:20:30.525Z,925
2017-07-08T09:21:30.569Z,930
2017-07-08T09:22:30.621Z,840
2017-07-08T09:23:30.674Z,940
2017-07-08T09:24:30.712Z,915
2017-07-08T09:25:30.760Z,1290
2017-07-08T09:26:30.806Z,1280
2017-07-08T09:27:30.862Z,1525
2017-07-08T09:28:30.913Z,1705
2017-07-08T09:29:30.952Z,1595
2017-07-08T09:30:31.009Z,1305
2017-07-08T09:31:31.054Z,1445
2017-07-08T09:32:31.108Z,1500
2017-07-08T09:33:31.154Z,1085
2017-07-08T09:34:31.204Z,1205
2017-07-08T09:35:31.256Z,1300
2017-07-08T09:36:31.299Z,1205
2017-07-08T09:37:31.359Z,1695
2017-07-08T09:38:31.406Z,1505
2017-07-08T09:39:31.449Z,1145
2017-07-08T09:40:31.505Z,1240
2017-07-08T09:41:31.553Z,1455
2017-07-08T09:42:31.610Z,1270
2017-07-08T09:43:31.659Z,1255
2017-07-08T09:44:31.704Z,1455
2017-07-08T09:45:31.763Z,1115
2017-07-08T09:46:31.805Z,1215
2017-07-08T09:47:31.865Z,690
2017-07-08T09:48:31.917Z,710
2017-07-08T09:49:31.969Z,805
2017-07-08T09:50:32.014Z,755
2017-07-08T09:51:32.065Z,640
2017-07-08T09:52:32.121Z,620
2017-07-08T09:53:32.172Z,565
2017-07-08T09:54:32.230Z,535
2017-07-08T09:55:32.293Z,615
2017-07-08T09:56:32.322Z,610
2017-07-08T09:57:32.371Z,625
2017-07-08T09:58:32.422Z,580
2017-07-08T09:59:32.468Z,490
2017-07-08T10:00:32.524Z,445
2017-07-08T10:01:32.571Z,415
2017-07-08T10:02:32.614Z,400
2017-07-08T10:03:32.677Z,385
2017-07-08T10:04:32.716Z,385
2017-07-08T10:05:32.769Z,370
2017-07-08T10:06:32.819Z,360
2017-07-08T10:07:32.887Z,350
2017-07-08T10:08:32.913Z,330
2017-07-08T10:09:32.962Z,315
2017-07-08T10:10:33.011Z,310
2017-07-08T10:11:33.101Z,300
2017-07-08T10:12:33.105Z,485
2017-07-08T10:13:33.475Z,435
2017-07-08T10:14:33.199Z,430
2017-07-08T10:15:33.240Z,485
2017-07-08T10:16:33.293Z,420
2017-07-08T10:17:33.346Z,430
2017-07-08T10:18:33.385Z,510
2017-07-08T10:19:33.437Z,715
2017-07-08T10:20:33.485Z,1590
2017-07-08T10:21:33.532Z,1005
2017-07-08T10:22:33.575Z,805
2017-07-08T10:23:33.619Z,1710
2017-07-08T10:24:33.676Z,1555
2017-07-08T10:25:33.725Z,2460
2017-07-08T10:26:33.774Z,1280
2017-07-08T10:27:33.825Z,2460
2017-07-08T10:28:33.864Z,2655
2017-07-08T10:29:33.922Z,2280
2017-07-08T10:30:33.970Z,850
2017-07-08T10:31:34.017Z,765
2017-07-08T10:32:34.076Z,745
2017-07-08T10:33:34.127Z,550
2017-07-08T10:34:34.176Z,500
2017-07-08T10:35:34.226Z,460
2017-07-08T10:36:34.281Z,435
2017-07-08T10:37:34.333Z,470
2017-07-08T10:38:34.379Z,505
2017-07-08T10:39:34.425Z,610
2017-07-08T10:40:34.483Z,505
2017-07-08T10:41:34.546Z,435
2017-07-08T10:42:34.582Z,610
2017-07-08T10:43:34.633Z,700
2017-07-08T10:44:34.674Z,860
2017-07-08T10:45:34.734Z,780
2017-07-08T10:46:34.778Z,665
2017-07-08T10:47:34.831Z,950
2017-07-08T10:48:34.883Z,570
2017-07-08T10:49:34.931Z,535
2017-07-08T10:50:34.980Z,2650
2017-07-08T10:51:35.024Z,805
2017-07-08T10:52:35.077Z,630
2017-07-08T10:53:35.126Z,660
2017-07-08T10:54:35.173Z,515
2017-07-08T10:55:35.231Z,520
2017-07-08T10:56:35.274Z,510
2017-07-08T10:57:35.348Z,1990
2017-07-08T10:58:35.384Z,1460
2017-07-08T10:59:35.424Z,495
2017-07-08T11:00:35.480Z,390
2017-07-08T11:01:35.531Z,485
2017-07-08T11:02:35.574Z,435
2017-07-08T11:03:35.628Z,390
2017-07-08T11:04:35.679Z,350
2017-07-08T11:05:35.728Z,335
2017-07-08T11:06:35.778Z,300
2017-07-08T11:07:35.821Z,270
2017-07-08T11:08:35.867Z,245
2017-07-08T11:09:35.927Z,240
2017-07-08T11:10:35.971Z,245
2017-07-08T11:11:36.013Z,245
2017-07-08T11:12:36.067Z,225
2017-07-08T11:13:36.113Z,200
2017-07-08T11:14:36.166Z,195
2017-07-08T11:15:36.214Z,215
2017-07-08T11:16:36.261Z,255
2017-07-08T11:17:36.335Z,285
2017-07-08T11:18:36.369Z,295
2017-07-08T11:19:36.396Z,355
2017-07-08T11:20:36.444Z,390
2017-07-08T11:21:36.501Z,400
2017-07-08T11:22:36.540Z,405
2017-07-08T11:23:36.582Z,375
2017-07-08T11:24:36.637Z,325
2017-07-08T11:25:36.681Z,295
2017-07-08T11:26:36.728Z,260
2017-07-08T11:27:36.770Z,225
2017-07-08T11:28:36.823Z,190
2017-07-08T11:29:36.875Z,175
2017-07-08T11:30:36.913Z,160
2017-07-08T11:31:36.955Z,150
2017-07-08T11:32:37.004Z,140
2017-07-08T11:33:37.056Z,140
2017-07-08T11:34:37.113Z,140
2017-07-08T11:35:37.149Z,145
2017-07-08T11:36:37.198Z,150
2017-07-08T11:37:37.253Z,160
2017-07-08T11:38:37.604Z,160
2017-07-08T11:39:37.333Z,165
2017-07-08T11:40:37.379Z,175
2017-07-08T11:41:37.422Z,165
2017-07-08T11:42:37.469Z,150
2017-07-08T11:43:37.508Z,145
2017-07-08T11:44:37.552Z,135
2017-07-08T11:45:37.604Z,135
2017-07-08T11:46:37.652Z,135
2017-07-08T11:47:37.689Z,135
2017-07-08T11:48:37.740Z,150
2017-07-08T11:49:37.787Z,165
2017-07-08T11:50:37.830Z,180
2017-07-08T11:51:37.877Z,195
2017-07-08T11:52:37.916Z,210
2017-07-08T11:53:37.960Z,275
2017-07-08T11:54:38.006Z,415
2017-07-08T11:55:38.059Z,535
2017-07-08T11:56:38.097Z,520
2017-07-08T11:57:38.147Z,455
2017-07-08T11:58:38.194Z,425
2017-07-08T11:59:38.230Z,435
2017-07-08T12:00:38.284Z,460
2017-07-08T12:01:38.327Z,420
2017-07-08T12:02:38.373Z,395
2017-07-08T12:03:38.418Z,390
2017-07-08T12:04:38.459Z,390
2017-07-08T12:05:38.508Z,395
2017-07-08T12:06:38.558Z,400
2017-07-08T12:07:38.610Z,395
2017-07-08T12:08:38.645Z,360
2017-07-08T12:09:39.006Z,335
2017-07-08T12:10:38.740Z,320
2017-07-08T12:11:38.784Z,315
2017-07-08T12:12:38.824Z,310
2017-07-08T12:13:39.197Z,315
2017-07-08T12:14:38.916Z,310
2017-07-08T12:15:38.969Z,295
2017-07-08T12:16:39.014Z,290
2017-07-08T12:17:39.067Z,290
2017-07-08T12:18:39.115Z,300
2017-07-08T12:19:39.145Z,310
2017-07-08T12:20:39.196Z,340
2017-07-08T12:21:39.239Z,395
2017-07-08T12:22:39.281Z,435
2017-07-08T12:23:39.328Z,425
2017-07-08T12:24:39.377Z,440
2017-07-08T12:25:39.487Z,445
2017-07-08T12:26:39.466Z,420
2017-07-08T12:27:39.519Z,425
2017-07-08T12:28:39.557Z,410
2017-07-08T12:29:39.615Z,400
2017-07-08T12:30:39.651Z,415
2017-07-08T12:31:39.704Z,455
2017-07-08T12:32:39.746Z,455
2017-07-08T12:33:39.786Z,450
2017-07-08T12:34:39.840Z,460
2017-07-08T12:35:40.202Z,485
2017-07-08T12:36:39.931Z,485
2017-07-08T12:37:39.978Z,475
2017-07-08T12:38:40.028Z,455
2017-07-08T12:39:40.067Z,465
2017-07-08T12:40:40.120Z,470
2017-07-08T12:41:40.162Z,480
2017-07-08T12:42:40.211Z,485
2017-07-08T12:43:40.252Z,515
2017-07-08T12:44:40.303Z,520
2017-07-08T12:45:40.346Z,495
2017-07-08T12:46:40.396Z,465
2017-07-08T12:47:40.443Z,475
2017-07-08T12:48:40.494Z,470
2017-07-08T12:49:40.531Z,455
2017-07-08T12:50:40.582Z,455
2017-07-08T12:51:40.632Z,460
2017-07-08T12:52:40.671Z,450
2017-07-08T12:53:40.717Z,445
2017-07-08T12:54:40.774Z,455
2017-07-08T12:55:40.815Z,455
2017-07-08T12:56:40.868Z,450
2017-07-08T12:57:40.914Z,440
2017-07-08T12:58:40.957Z,410
2017-07-08T12:59:41.005Z,395
2017-07-08T13:00:41.046Z,395
2017-07-08T13:01:41.100Z,410
2017-07-08T13:02:41.140Z,420
2017-07-08T13:03:41.196Z,430
2017-07-08T13:04:41.242Z,440
2017-07-08T13:05:41.286Z,440
2017-07-08T13:06:41.339Z,435
2017-07-08T13:07:41.382Z,430
2017-07-08T13:08:41.422Z,410
2017-07-08T13:09:41.476Z,375
2017-07-08T13:10:41.516Z,355
2017-07-08T13:11:41.568Z,340
2017-07-08T13:12:41.610Z,315
2017-07-08T13:13:41.665Z,320
2017-07-08T13:14:41.711Z,340
2017-07-08T13:15:41.758Z,350
2017-07-08T13:16:41.798Z,355
2017-07-08T13:17:41.858Z,360
2017-07-08T13:18:41.895Z,370
2017-07-08T13:19:41.938Z,385
2017-07-08T13:20:41.991Z,375
2017-07-08T13:21:42.038Z,370
2017-07-08T13:22:42.075Z,360
2017-07-08T13:23:42.127Z,360
2017-07-08T13:24:42.191Z,360
2017-07-08T13:25:42.225Z,355
2017-07-08T13:26:42.279Z,350
2017-07-08T13:27:42.312Z,355
2017-07-08T13:28:42.368Z,365
2017-07-08T13:29:42.408Z,370
2017-07-08T13:30:42.458Z,375
2017-07-08T13:31:42.505Z,380
2017-07-08T13:32:42.549Z,380
2017-07-08T13:33:42.593Z,385
2017-07-08T13:34:42.642Z,395
2017-07-08T13:35:42.697Z,390
2017-07-08T13:36:43.058Z,385
2017-07-08T13:37:42.779Z,375
2017-07-08T13:38:42.830Z,375
2017-07-08T13:39:42.876Z,380
2017-07-08T13:40:42.926Z,380
2017-07-08T13:41:42.977Z,385
2017-07-08T13:42:43.044Z,375
2017-07-08T13:43:43.067Z,375
2017-07-08T13:44:43.113Z,375
2017-07-08T13:45:43.156Z,380
2017-07-08T13:46:43.209Z,385
2017-07-08T13:47:43.260Z,385
2017-07-08T13:48:43.294Z,385
2017-07-08T13:49:43.347Z,370
2017-07-08T13:50:43.405Z,355
2017-07-08T13:51:43.441Z,345
2017-07-08T13:52:43.487Z,335
2017-07-08T13:53:43.534Z,330
2017-07-08T13:54:43.582Z,325
2017-07-08T13:55:43.628Z,300
2017-07-08T13:56:43.671Z,295
2017-07-08T13:57:43.736Z,310